Time;durP1;ratioP1;P1;durP2;ratioP2;P2;SDS_P1;SDS_P2;PMS_P1;PMS_P2;Temp;Humidity;BMP_temperature;BMP_pressure;BME280_temperature;BME280_humidity;BME280_pressure;Samples;Min_cycle;Max_cycle;Signal;HPM_P1;HPM_P2
2021/07/13 00:00:23;;;;;;;39.33;35.20;;;;;;;18.55;86.88;101112.69;691226;28;836;-59
2021/07/13 00:00:50;;;;;;;39.13;35.13;;;;;;;18.57;86.85;101112.56;691144;28;1726;-59
2021/07/13 00:01:10;;;;;;;38.70;34.70;;;;;;;18.57;87.02;101115.25;691150;28;900;-58
2021/07/13 00:01:30;;;;;;;39.20;35.10;;;;;;;18.55;86.81;101111.81;691240;28;872;-58
2021/07/13 00:01:50;;;;;;;38.63;34.70;;;;;;;18.55;86.70;101111.81;691313;28;995;-58
2021/07/13 00:02:11;;;;;;;39.38;35.33;;;;;;;18.56;86.98;101116.22;691234;28;999;-58
2021/07/13 00:02:31;;;;;;;39.83;35.72;;;;;;;18.56;86.66;101109.06;691207;28;1217;-58
2021/07/13 00:02:52;;;;;;;38.90;35.00;;;;;;;18.55;86.78;101106.47;690656;28;920;-58
2021/07/13 00:03:12;;;;;;;38.87;34.87;;;;;;;18.54;86.60;101110.13;691265;28;769;-58
2021/07/13 00:03:33;;;;;;;38.80;34.73;;;;;;;18.52;86.95;101109.38;691272;28;838;-58
2021/07/13 00:03:53;;;;;;;39.28;35.20;;;;;;;18.50;86.89;101110.31;691177;28;884;-58
2021/07/13 00:04:14;;;;;;;39.67;35.67;;;;;;;18.49;87.05;101108.63;691329;28;991;-58
2021/07/13 00:04:35;;;;;;;39.30;35.30;;;;;;;18.48;86.93;101111.41;691183;28;1240;-58
2021/07/13 00:04:55;;;;;;;39.22;35.17;;;;;;;18.47;87.22;101110.53;691189;28;899;-57
2021/07/13 00:05:18;;;;;;;39.20;35.20;;;;;;;18.43;87.21;101110.88;691251;28;785;-58
2021/07/13 00:05:39;;;;;;;39.25;35.17;;;;;;;18.41;87.47;101108.34;691145;28;1894;-58
2021/07/13 00:06:00;;;;;;;40.10;36.00;;;;;;;18.41;87.25;101103.00;691287;28;861;-58
2021/07/13 00:06:21;;;;;;;40.72;36.53;;;;;;;18.41;87.56;101108.34;691323;28;828;-59
2021/07/13 00:06:42;;;;;;;39.08;35.08;;;;;;;18.41;87.36;101110.13;691213;28;923;-58
2021/07/13 00:07:03;;;;;;;39.83;35.65;;;;;;;18.40;87.40;101109.28;691192;28;980;-58
2021/07/13 00:07:23;;;;;;;39.28;35.20;;;;;;;18.40;87.55;101109.28;691157;28;989;-58
2021/07/13 00:07:46;;;;;;;40.17;36.00;;;;;;;18.40;87.29;101108.41;691138;28;995;-58
2021/07/13 00:08:07;;;;;;;39.60;35.60;;;;;;;18.37;87.49;101109.47;691251;28;963;-58
2021/07/13 00:08:30;;;;;;;40.17;36.08;;;;;;;18.36;87.29;101105.13;691305;28;868;-58
2021/07/13 00:08:51;;;;;;;39.70;35.67;;;;;;;18.38;87.37;101111.22;691205;28;964;-58
2021/07/13 00:09:12;;;;;;;40.38;36.25;;;;;;;18.39;87.51;101112.06;691098;28;953;-58
2021/07/13 00:09:32;;;;;;;40.53;36.27;;;;;;;18.39;87.53;101110.25;691047;28;987;-59
2021/07/13 00:09:52;;;;;;;41.20;37.00;;;;;;;18.40;87.45;101109.28;691238;28;836;-59
2021/07/13 00:10:16;;;;;;;40.30;36.03;;;;;;;18.43;87.57;101114.41;691267;28;904;-59
2021/07/13 00:10:42;;;;;;;39.88;35.78;;;;;;;18.42;87.17;101110.03;691229;28;896;-59
2021/07/13 00:11:02;;;;;;;38.75;34.75;;;;;;;18.45;87.28;101107.16;691143;28;1258;-59
2021/07/13 00:11:23;;;;;;;39.27;35.27;;;;;;;18.45;87.17;101112.47;691059;28;1029;-58
2021/07/13 00:11:43;;;;;;;39.77;35.77;;;;;;;18.45;87.38;101107.16;691316;28;971;-59
2021/07/13 00:12:04;;;;;;;39.75;35.55;;;;;;;18.45;87.09;101112.47;691212;28;979;-59
2021/07/13 00:12:24;;;;;;;38.90;34.90;;;;;;;18.45;86.99;101112.47;691189;28;883;-59
2021/07/13 00:12:45;;;;;;;38.60;34.60;;;;;;;18.43;87.22;101114.41;690870;28;1007;-59
2021/07/13 00:13:05;;;;;;;39.55;35.38;;;;;;;18.42;87.15;101118.03;691156;28;821;-59
2021/07/13 00:13:26;;;;;;;39.83;35.77;;;;;;;18.41;87.51;101116.34;691291;28;840;-59
2021/07/13 00:13:47;;;;;;;40.50;36.40;;;;;;;18.39;87.38;101114.72;691794;28;883;-59
2021/07/13 00:14:07;;;;;;;39.28;35.28;;;;;;;18.38;87.57;101113.88;691453;28;974;-58
2021/07/13 00:14:28;;;;;;;40.37;36.17;;;;;;;18.38;87.62;101116.56;691428;28;1237;-58
2021/07/13 00:14:49;;;;;;;39.80;35.70;;;;;;;18.35;87.62;101122.09;691743;28;852;-58
2021/07/13 00:15:31;;;;;;;39.40;35.35;;;;;;;18.38;87.40;101113.88;691312;28;987;-58
2021/07/13 00:15:52;;;;;;;39.55;35.50;;;;;;;18.41;87.44;101116.34;691604;28;900;-58
2021/07/13 00:16:13;;;;;;;39.07;35.07;;;;;;;18.40;87.36;101119.94;691543;28;865;-58
2021/07/13 00:16:33;;;;;;;40.00;35.80;;;;;;;18.39;87.36;101118.25;691748;28;1066;-58
2021/07/13 00:16:53;;;;;;;39.63;35.50;;;;;;;18.40;87.53;101116.44;691548;28;911;-58
2021/07/13 00:17:14;;;;;;;39.17;35.13;;;;;;;18.41;87.37;101120.78;691305;28;1030;-59
2021/07/13 00:17:34;;;;;;;39.20;35.10;;;;;;;18.43;87.14;101117.06;691420;28;983;-58
2021/07/13 00:17:56;;;;;;;39.63;35.60;;;;;;;18.39;87.23;101118.25;691620;28;1076;-58
2021/07/13 00:18:17;;;;;;;39.55;35.53;;;;;;;18.40;87.52;101119.09;691767;28;876;-58
2021/07/13 00:18:37;;;;;;;39.23;35.23;;;;;;;18.42;87.72;101120.69;691525;28;1030;-58
2021/07/13 00:18:58;;;;;;;39.53;35.42;;;;;;;18.42;87.19;101115.38;691573;28;1038;-58
2021/07/13 00:19:18;;;;;;;38.93;34.93;;;;;;;18.41;87.07;101113.66;691474;28;987;-59
2021/07/13 00:19:38;;;;;;;39.10;35.08;;;;;;;18.43;87.14;101109.06;691639;28;940;-58
2021/07/13 00:19:58;;;;;;;38.83;34.83;;;;;;;18.43;87.25;101111.72;691434;28;897;-58
2021/07/13 00:20:19;;;;;;;38.30;34.30;;;;;;;18.45;87.12;101111.63;691331;28;874;-58
2021/07/13 00:20:40;;;;;;;38.67;34.58;;;;;;;18.45;87.06;101112.47;690870;28;821;-58
2021/07/13 00:21:00;;;;;;;40.20;36.00;;;;;;;18.45;87.18;101112.47;691063;28;789;-58
2021/07/13 00:21:29;;;;;;;39.60;35.53;;;;;;;18.46;86.98;101108.00;690823;28;787;-58
2021/07/13 00:21:50;;;;;;;40.05;35.95;;;;;;;18.46;87.20;101113.34;690807;28;1042;-58
2021/07/13 00:22:10;;;;;;;39.38;35.28;;;;;;;18.46;87.25;101108.84;690971;28;1004;-58
2021/07/13 00:22:31;;;;;;;37.70;33.83;;;;;;;18.46;87.09;101106.19;690994;28;971;-58
2021/07/13 00:22:52;;;;;;;39.03;35.03;;;;;;;18.40;87.06;101109.28;690785;28;809;-58
2021/07/13 00:23:12;;;;;;;40.05;35.83;;;;;;;18.41;87.42;101111.00;691098;28;927;-58
2021/07/13 00:23:36;;;;;;;39.67;35.57;;;;;;;18.42;87.27;101119.84;691047;28;872;-58
2021/07/13 00:23:57;;;;;;;39.78;35.67;;;;;;;18.39;87.39;101118.25;691181;28;891;-58
2021/07/13 00:24:20;;;;;;;39.60;35.60;;;;;;;18.38;87.20;101105.88;691165;28;854;-58
2021/07/13 00:24:43;;;;;;;39.95;35.83;;;;;;;18.34;87.43;101114.19;690923;28;1331;-58
2021/07/13 00:25:04;;;;;;;42.28;37.88;;;;;;;18.33;87.34;101112.47;691180;28;979;-59
2021/07/13 00:25:27;;;;;;;41.25;36.95;;;;;;;18.35;87.81;101115.91;690998;28;1009;-58
2021/07/13 00:25:47;;;;;;;39.17;34.97;;;;;;;18.37;87.64;101117.47;691039;28;1911;-58
2021/07/13 00:26:10;;;;;;;38.73;34.77;;;;;;;18.36;87.67;101123.78;691210;28;832;-58
2021/07/13 00:26:30;;;;;;;39.85;35.75;;;;;;;18.36;87.40;101118.47;691090;28;892;-59
2021/07/13 00:26:51;;;;;;;39.93;35.83;;;;;;;18.35;87.67;101122.09;691231;28;868;-58
2021/07/13 00:27:11;;;;;;;40.33;36.13;;;;;;;18.33;87.59;101121.34;691126;28;1026;-58
2021/07/13 00:27:31;;;;;;;40.80;36.60;;;;;;;18.32;87.80;101121.47;690976;28;979;-58
2021/07/13 00:27:52;;;;;;;39.87;35.67;;;;;;;18.33;87.66;101129.34;691176;28;1018;-59
2021/07/13 00:28:12;;;;;;;38.83;34.78;;;;;;;18.32;87.64;101124.13;691072;28;825;-58
2021/07/13 00:28:33;;;;;;;38.73;34.73;;;;;;;18.32;87.77;101126.78;691196;28;879;-58
2021/07/13 00:28:53;;;;;;;39.65;35.50;;;;;;;18.33;87.71;101128.50;691225;28;844;-58
2021/07/13 00:29:14;;;;;;;40.20;35.97;;;;;;;18.35;87.50;101132.78;691001;28;861;-58
2021/07/13 00:29:34;;;;;;;39.78;35.60;;;;;;;18.32;87.39;101127.66;691132;28;844;-59
2021/07/13 00:29:57;;;;;;;40.50;36.20;;;;;;;18.30;87.64;101128.69;690608;28;1286;-59
2021/07/13 00:30:19;;;;;;;41.40;37.10;;;;;;;18.30;87.68;101129.56;691035;28;1239;-58
2021/07/13 00:30:39;;;;;;;41.03;36.88;;;;;;;18.33;87.71;101126.66;691024;28;1727;-58
2021/07/13 00:31:00;;;;;;;40.57;36.30;;;;;;;18.32;87.39;101124.97;691117;28;937;-59
2021/07/13 00:31:20;;;;;;;40.88;36.63;;;;;;;18.27;87.64;101133.31;691114;28;998;-58
2021/07/13 00:31:40;;;;;;;41.40;37.00;;;;;;;18.26;87.63;101122.72;691064;28;979;-59
2021/07/13 00:32:00;;;;;;;41.93;37.53;;;;;;;18.28;87.54;101126.16;690996;28;1007;-58
2021/07/13 00:32:21;;;;;;;40.95;36.70;;;;;;;18.29;87.66;101127.84;691246;28;955;-58
2021/07/13 00:32:41;;;;;;;40.43;36.33;;;;;;;18.30;87.66;101126.88;690869;28;844;-58
2021/07/13 00:33:02;;;;;;;40.25;36.15;;;;;;;18.32;87.48;101122.31;690915;28;793;-58
2021/07/13 00:33:22;;;;;;;40.90;36.60;;;;;;;18.31;87.42;101131.28;691133;28;935;-58
2021/07/13 00:33:42;;;;;;;41.00;36.70;;;;;;;18.30;87.46;101129.56;691137;28;818;-58
2021/07/13 00:34:03;;;;;;;40.13;35.85;;;;;;;18.29;87.46;101124.34;691042;28;880;-59
2021/07/13 00:34:23;;;;;;;40.70;36.30;;;;;;;18.30;87.47;101128.69;691159;28;1394;-59
2021/07/13 00:34:43;;;;;;;40.37;36.07;;;;;;;18.34;87.39;101131.06;690981;28;988;-59
2021/07/13 00:35:05;;;;;;;40.90;36.60;;;;;;;18.32;87.39;101140.13;691189;28;959;-59
2021/07/13 00:35:25;;;;;;;41.13;36.92;;;;;;;18.32;87.36;101126.78;690899;28;1145;-59
2021/07/13 00:35:45;;;;;;;40.50;36.30;;;;;;;18.34;87.60;101130.19;691031;28;1023;-58
2021/07/13 00:36:05;;;;;;;40.80;36.60;;;;;;;18.29;87.64;101127.84;691068;28;1012;-58
2021/07/13 00:36:32;;;;;;;40.87;36.67;;;;;;;18.26;87.53;101130.72;691198;28;1298;-59
2021/07/13 00:36:52;;;;;;;41.60;37.22;;;;;;;18.27;87.78;101125.31;691032;28;1089;-59
2021/07/13 00:37:12;;;;;;;40.67;36.43;;;;;;;18.26;87.77;101128.06;691153;28;884;-58
2021/07/13 00:37:33;;;;;;;41.00;36.60;;;;;;;18.24;87.53;101130.84;691125;28;820;-59
2021/07/13 00:37:54;;;;;;;41.63;37.22;;;;;;;18.25;87.78;101131.69;691079;28;1049;-59
2021/07/13 00:38:14;;;;;;;41.60;37.28;;;;;;;18.24;87.74;101136.19;691105;28;887;-58
2021/07/13 00:38:34;;;;;;;40.77;36.57;;;;;;;18.25;87.73;101129.03;691035;28;990;-58
2021/07/13 00:38:54;;;;;;;40.20;36.03;;;;;;;18.26;87.77;101131.56;691141;28;979;-58
2021/07/13 00:39:17;;;;;;;39.90;35.80;;;;;;;18.24;87.66;101125.50;691138;28;990;-58
2021/07/13 00:39:38;;;;;;;40.35;36.17;;;;;;;18.24;87.92;101124.66;690630;28;1355;-59
2021/07/13 00:39:58;;;;;;;40.47;36.37;;;;;;;18.24;87.71;101130.84;690640;28;1023;-58
2021/07/13 00:40:21;;;;;;;39.97;35.80;;;;;;;18.21;87.81;101128.38;691052;28;971;-58
2021/07/13 00:40:44;;;;;;;40.25;36.05;;;;;;;18.21;87.83;101124.88;691102;28;1303;-58
2021/07/13 00:41:04;;;;;;;41.83;37.42;;;;;;;18.22;87.77;101130.09;691042;28;1007;-58
2021/07/13 00:41:25;;;;;;;42.35;37.92;;;;;;;18.24;87.67;101135.34;691038;28;970;-58
2021/07/13 00:41:45;;;;;;;41.30;36.93;;;;;;;18.23;87.61;101136.28;691168;28;995;-58
2021/07/13 00:42:12;;;;;;;41.53;37.17;;;;;;;18.21;87.68;101130.22;691123;28;1387;-58
2021/07/13 00:42:35;;;;;;;42.33;37.83;;;;;;;18.21;87.69;101131.06;690939;28;845;-58
2021/07/13 00:42:56;;;;;;;41.20;36.90;;;;;;;18.24;87.65;101135.34;690658;28;796;-59
2021/07/13 00:43:16;;;;;;;40.77;36.47;;;;;;;18.24;87.94;101128.19;691027;28;1110;-58
2021/07/13 00:43:39;;;;;;;41.33;36.97;;;;;;;18.23;87.88;101130.94;691131;28;967;-58
2021/07/13 00:44:00;;;;;;;41.55;37.25;;;;;;;18.20;87.88;101133.81;690557;28;1521;-58
2021/07/13 00:44:20;;;;;;;41.60;37.20;;;;;;;18.19;88.04;101132.97;691058;28;994;-59
2021/07/13 00:44:42;;;;;;;42.47;37.97;;;;;;;18.17;87.81;101132.22;691011;28;1350;-58
2021/07/13 00:45:05;;;;;;;42.40;37.90;;;;;;;18.16;87.81;101127.00;691074;28;865;-58
2021/07/13 00:45:26;;;;;;;41.55;37.15;;;;;;;18.19;87.86;101126.78;691078;28;942;-58
2021/07/13 00:45:49;;;;;;;42.20;37.80;;;;;;;18.20;87.98;101125.81;691092;28;1919;-58
2021/07/13 00:46:11;;;;;;;41.13;36.78;;;;;;;18.18;88.01;101125.94;691021;28;883;-58
2021/07/13 00:46:44;;;;;;;43.28;38.60;;;;;;;18.19;88.01;101134.78;691080;28;983;-58
2021/07/13 00:47:04;;;;;;;42.63;38.17;;;;;;;18.20;87.95;101128.47;690951;28;927;-58
2021/07/13 00:47:26;;;;;;;42.78;38.15;;;;;;;18.21;87.83;101125.72;691157;28;804;-58
2021/07/13 00:47:49;;;;;;;42.75;38.17;;;;;;;18.19;87.65;101132.13;691109;28;1010;-58
2021/07/13 00:48:10;;;;;;;41.88;37.47;;;;;;;18.20;88.06;101133.81;691016;28;797;-58
2021/07/13 00:48:30;;;;;;;41.65;37.25;;;;;;;18.19;87.66;101129.44;691154;28;868;-58
2021/07/13 00:48:50;;;;;;;42.37;37.27;;;;;;;18.18;87.84;101133.94;691182;28;797;-59
2021/07/13 00:49:12;;;;;;;42.47;37.97;;;;;;;18.13;87.85;101129.88;691006;28;971;-59
2021/07/13 00:49:35;;;;;;;43.50;38.90;;;;;;;18.18;87.78;101141.94;691156;28;853;-59
2021/07/13 00:49:59;;;;;;;42.72;37.90;;;;;;;18.13;88.10;101125.38;691088;28;820;-58
2021/07/13 00:50:22;;;;;;;43.38;38.67;;;;;;;18.14;88.21;101128.94;691215;28;953;-58
2021/07/13 00:50:45;;;;;;;44.05;39.25;;;;;;;18.16;88.11;101127.00;690940;28;1250;-59
2021/07/13 00:51:06;;;;;;;44.17;39.38;;;;;;;18.18;87.93;101130.41;691369;28;976;-59
2021/07/13 00:51:27;;;;;;;44.60;39.70;;;;;;;18.17;87.99;101128.69;691082;28;891;-58
2021/07/13 00:51:47;;;;;;;44.78;39.90;;;;;;;18.17;87.83;101126.03;691121;28;885;-59
2021/07/13 00:52:07;;;;;;;44.05;39.35;;;;;;;18.17;88.10;101129.56;690922;28;1458;-59
2021/07/13 00:52:28;;;;;;;44.37;39.57;;;;;;;18.20;88.07;101131.16;690911;28;1006;-59
2021/07/13 00:52:49;;;;;;;44.08;39.35;;;;;;;18.20;87.86;101128.47;690419;28;828;-59
2021/07/13 00:53:09;;;;;;;43.92;39.42;;;;;;;18.22;87.89;101123.91;690983;28;824;-59
2021/07/13 00:53:30;;;;;;;43.30;38.60;;;;;;;18.23;87.89;101125.59;690681;28;1111;-59
2021/07/13 00:53:50;;;;;;;43.67;38.95;;;;;;;18.23;87.72;101125.59;690902;28;1420;-59
2021/07/13 00:54:12;;;;;;;43.97;39.27;;;;;;;18.21;87.48;101127.53;691111;28;789;-59
2021/07/13 00:54:33;;;;;;;44.95;40.13;;;;;;;18.19;87.77;101121.44;690953;28;1174;-59
2021/07/13 00:54:54;;;;;;;44.35;39.55;;;;;;;18.20;88.00;101120.47;691135;28;864;-59
2021/07/13 00:55:15;;;;;;;43.83;39.13;;;;;;;18.21;87.62;101124.88;691118;28;931;-59
2021/07/13 00:55:36;;;;;;;44.83;40.13;;;;;;;18.17;87.69;101118.91;691057;28;920;-59
2021/07/13 00:55:59;;;;;;;44.90;39.80;;;;;;;18.18;87.98;101125.09;691204;28;860;-59
2021/07/13 00:56:21;;;;;;;43.55;38.88;;;;;;;18.15;87.94;101114.63;691037;28;949;-59
2021/07/13 00:56:43;;;;;;;44.75;40.05;;;;;;;18.14;87.80;101118.25;691114;28;1010;-59
2021/07/13 00:57:08;;;;;;;44.47;39.60;;;;;;;18.12;88.26;101114.84;690477;28;1479;-59
2021/07/13 00:57:28;;;;;;;45.10;39.33;;;;;;;18.13;87.93;101116.53;690961;28;1010;-59
2021/07/13 00:57:49;;;;;;;45.28;40.10;;;;;;;18.13;87.92;101111.19;691121;28;843;-59
2021/07/13 00:58:09;;;;;;;45.93;40.93;;;;;;;18.15;88.16;101114.63;691135;28;959;-59
2021/07/13 00:58:29;;;;;;;45.42;40.47;;;;;;;18.17;88.04;101118.00;691080;28;1125;-59
2021/07/13 00:58:50;;;;;;;46.13;40.83;;;;;;;18.17;87.91;101115.34;691158;28;872;-59
2021/07/13 00:59:13;;;;;;;46.17;41.13;;;;;;;18.14;87.83;101111.09;690953;28;919;-59
2021/07/13 00:59:34;;;;;;;47.22;40.95;;;;;;;18.15;88.25;101117.28;691029;28;958;-59
2021/07/13 00:59:55;;;;;;;48.67;42.13;;;;;;;18.09;88.42;101113.22;691139;28;883;-60
2021/07/13 01:00:17;;;;;;;50.00;43.20;;;;;;;18.09;88.36;101115.03;691079;28;793;-59
2021/07/13 01:00:38;;;;;;;49.05;43.50;;;;;;;18.06;88.17;101116.09;690957;28;1419;-59
2021/07/13 01:00:58;;;;;;;49.67;42.97;;;;;;;18.06;88.61;101117.91;691019;28;942;-59
2021/07/13 01:01:22;;;;;;;49.93;43.07;;;;;;;18.08;88.42;101113.34;690955;28;927;-59
2021/07/13 01:01:42;;;;;;;47.53;42.33;;;;;;;18.09;88.31;101115.03;690973;28;1054;-59
2021/07/13 01:02:03;;;;;;;51.10;44.47;;;;;;;18.05;88.85;101113.56;690952;28;880;-59
2021/07/13 01:02:24;;;;;;;52.38;44.05;;;;;;;18.05;88.72;101113.56;691101;28;892;-60
2021/07/13 01:02:52;;;;;;;51.50;43.42;;;;;;;18.06;88.50;101123.25;690579;28;1043;-59
2021/07/13 01:03:12;;;;;;;49.80;42.75;;;;;;;18.06;88.60;101120.59;690787;28;1470;-59
2021/07/13 01:03:35;;;;;;;51.35;43.78;;;;;;;18.02;88.69;101120.78;690990;28;946;-59
2021/07/13 01:03:57;;;;;;;52.70;44.63;;;;;;;18.04;88.83;101118.03;691093;28;864;-59
2021/07/13 01:04:18;;;;;;;53.33;44.17;;;;;;;18.07;89.05;101127.66;691096;28;872;-59
2021/07/13 01:04:50;;;;;;;52.80;44.60;;;;;;;18.06;88.83;101121.44;691058;28;1328;-59
2021/07/13 01:05:20;;;;;;;53.63;44.22;;;;;;;18.05;88.76;101119.72;690938;28;1022;-59
2021/07/13 01:05:44;;;;;;;53.10;44.22;;;;;;;18.08;88.83;101126.69;690893;28;1918;-59
2021/07/13 01:06:05;;;;;;;53.70;44.47;;;;;;;18.08;88.75;101124.00;691115;28;1004;-59
2021/07/13 01:06:45;;;;;;;52.58;44.65;;;;;;;18.10;88.89;101127.41;691111;28;861;-59
2021/07/13 01:07:45;;;;;;;55.10;45.90;;;;;;;18.08;88.98;101126.69;691141;28;923;-59
2021/07/13 01:08:48;;;;;;;52.80;44.30;;;;;;;18.08;88.87;101135.53;691118;28;874;-59
2021/07/13 01:09:14;;;;;;;52.70;44.15;;;;;;;18.09;88.98;101131.03;690782;28;2073;-59
2021/07/13 01:09:57;;;;;;;53.20;45.30;;;;;;;18.05;89.30;101130.41;690847;28;945;-59
2021/07/13 01:10:24;;;;;;;53.95;45.15;;;;;;;18.09;89.20;101131.03;690782;28;956;-58
2021/07/13 01:10:53;;;;;;;54.20;44.20;;;;;;;18.08;89.11;101119.53;690858;28;841;-58
2021/07/13 01:11:45;;;;;;;53.53;45.35;;;;;;;18.10;89.14;101127.41;690848;28;852;-59
2021/07/13 01:12:18;;;;;;;55.78;45.05;;;;;;;18.09;89.31;101128.38;690881;28;898;-59
2021/07/13 01:13:07;;;;;;;53.05;44.30;;;;;;;18.09;89.19;101128.38;690719;28;892;-58
2021/07/13 01:13:30;;;;;;;54.15;44.55;;;;;;;18.07;89.27;101123.16;691038;28;1031;-59
2021/07/13 01:14:02;;;;;;;52.42;43.78;;;;;;;18.08;89.22;101122.19;691043;28;895;-58
2021/07/13 01:14:32;;;;;;;53.78;44.67;;;;;;;18.10;89.42;101127.41;690853;28;1331;-58
2021/07/13 01:14:55;;;;;;;54.15;45.08;;;;;;;18.07;89.27;101122.31;691067;28;1039;-58
2021/07/13 01:15:20;;;;;;;53.83;45.05;;;;;;;18.08;89.17;101130.19;690886;28;883;-59
2021/07/13 01:15:57;;;;;;;54.08;45.53;;;;;;;18.09;89.16;101131.03;690968;28;884;-59
2021/07/13 01:16:25;;;;;;;53.42;45.83;;;;;;;18.07;89.39;101127.66;690949;28;958;-58
2021/07/13 01:16:53;;;;;;;52.83;44.85;;;;;;;18.10;89.38;101124.75;691097;28;887;-58
2021/07/13 01:17:17;;;;;;;53.60;44.83;;;;;;;18.13;89.47;101125.38;690805;28;947;-58
2021/07/13 01:17:40;;;;;;;53.30;44.08;;;;;;;18.13;89.34;101130.72;690787;28;918;-58
2021/07/13 01:18:08;;;;;;;54.17;45.20;;;;;;;18.14;89.42;101123.59;690793;28;895;-59
2021/07/13 01:18:36;;;;;;;53.83;44.63;;;;;;;18.15;89.45;101131.47;690871;28;939;-59
2021/07/13 01:19:10;;;;;;;54.58;44.05;;;;;;;18.18;89.38;101131.28;690732;28;878;-59
2021/07/13 01:20:00;;;;;;;51.75;44.25;;;;;;;18.20;89.22;101131.16;690985;28;869;-58
2021/07/13 01:20:57;;;;;;;54.95;45.22;;;;;;;18.16;89.13;101127.84;690978;28;956;-59
2021/07/13 01:21:39;;;;;;;52.97;44.33;;;;;;;18.17;88.96;101128.69;691024;28;859;-59
2021/07/13 01:22:08;;;;;;;55.40;45.00;;;;;;;18.19;89.29;101126.78;690966;28;923;-59
2021/07/13 01:22:37;;;;;;;53.58;44.65;;;;;;;18.21;88.89;101131.06;690962;28;1002;-58
2021/07/13 01:23:17;;;;;;;54.03;44.90;;;;;;;18.21;89.04;101125.72;690698;28;902;-59
2021/07/13 01:23:56;;;;;;;54.88;44.45;;;;;;;18.24;88.93;101135.34;690859;28;922;-58
2021/07/13 01:24:30;;;;;;;52.55;44.72;;;;;;;18.20;88.88;101132.03;690927;28;1303;-58
2021/07/13 01:25:11;;;;;;;53.47;44.80;;;;;;;18.20;88.84;101125.81;690882;28;1742;-58
2021/07/13 01:25:56;;;;;;;53.90;45.35;;;;;;;18.23;88.82;101129.13;690856;28;896;-58
2021/07/13 01:26:45;;;;;;;55.30;45.38;;;;;;;18.23;88.93;101131.78;690851;28;1021;-58
2021/07/13 01:27:34;;;;;;;54.08;45.33;;;;;;;18.22;88.78;101131.91;691094;28;840;-59
2021/07/13 01:28:09;;;;;;;53.78;43.75;;;;;;;18.25;88.81;101137.03;690948;28;1008;-58
2021/07/13 01:28:43;;;;;;;50.90;43.65;;;;;;;18.27;88.72;101132.44;690926;28;904;-59
2021/07/13 01:29:11;;;;;;;51.28;42.75;;;;;;;18.27;88.63;101135.09;691048;28;809;-58
2021/07/13 01:29:37;;;;;;;54.58;44.15;;;;;;;18.26;88.76;101139.59;690882;28;1294;-58
2021/07/13 01:30:03;;;;;;;53.78;43.75;;;;;;;18.29;88.91;101137.69;691012;28;854;-59
2021/07/13 01:30:27;;;;;;;52.78;43.83;;;;;;;18.30;88.72;101142.03;690897;28;888;-59
2021/07/13 01:30:52;;;;;;;54.17;44.42;;;;;;;18.29;88.72;101133.19;690941;28;1050;-59
2021/07/13 01:31:19;;;;;;;53.72;44.47;;;;;;;18.26;89.01;101138.72;690959;28;1015;-58
2021/07/13 01:31:41;;;;;;;53.53;45.53;;;;;;;18.23;88.83;101138.94;690991;28;923;-58
2021/07/13 01:32:05;;;;;;;55.53;44.65;;;;;;;18.26;88.87;101133.41;690881;28;871;-58
2021/07/13 01:32:29;;;;;;;55.30;44.80;;;;;;;18.27;89.07;101137.75;690967;28;1108;-59
2021/07/13 01:33:15;;;;;;;54.50;44.97;;;;;;;18.27;88.73;101138.66;690452;28;845;-58
2021/07/13 01:33:38;;;;;;;52.85;43.88;;;;;;;18.25;88.69;101139.69;690571;28;1743;-58
2021/07/13 01:34:12;;;;;;;54.03;44.78;;;;;;;18.26;88.77;101138.72;690877;28;926;-58
2021/07/13 01:34:39;;;;;;;53.95;44.50;;;;;;;18.25;89.06;101137.03;690856;28;1340;-58
2021/07/13 01:35:05;;;;;;;55.42;45.47;;;;;;;18.25;88.96;101142.38;690870;28;1496;-58
2021/07/13 01:35:34;;;;;;;54.50;44.72;;;;;;;18.28;88.77;101136.81;690852;28;1078;-58
2021/07/13 01:36:00;;;;;;;53.08;43.78;;;;;;;18.29;89.05;101127.84;690855;28;971;-58
2021/07/13 01:36:44;;;;;;;53.78;44.20;;;;;;;18.28;88.64;101139.50;691002;28;821;-58
2021/07/13 01:37:07;;;;;;;54.22;44.20;;;;;;;18.29;88.70;101132.34;691011;28;848;-58
2021/07/13 01:37:28;;;;;;;54.00;43.67;;;;;;;18.28;88.79;101131.50;690968;28;828;-58
2021/07/13 01:37:53;;;;;;;54.45;44.38;;;;;;;18.28;88.65;101136.81;690785;28;1310;-58
2021/07/13 01:38:16;;;;;;;53.90;44.67;;;;;;;18.28;88.63;101136.81;690982;28;1038;-59
2021/07/13 01:38:45;;;;;;;53.33;44.33;;;;;;;18.25;88.78;101131.69;690940;28;923;-58
2021/07/13 01:39:09;;;;;;;54.42;44.33;;;;;;;18.28;88.94;101134.16;691112;28;1037;-58
2021/07/13 01:39:31;;;;;;;52.40;43.70;;;;;;;18.30;88.77;101134.03;691000;28;962;-59
2021/07/13 01:39:53;;;;;;;51.88;43.17;;;;;;;18.30;88.80;101128.69;690943;28;918;-59
2021/07/13 01:40:18;;;;;;;50.65;42.85;;;;;;;18.34;88.91;101132.84;691100;28;948;-58
2021/07/13 01:40:41;;;;;;;52.17;44.38;;;;;;;18.32;88.51;101132.13;690835;28;978;-59
2021/07/13 01:41:05;;;;;;;54.42;44.17;;;;;;;18.34;88.67;101130.19;690986;28;810;-58
2021/07/13 01:41:29;;;;;;;51.03;42.78;;;;;;;18.34;88.72;101136.41;690887;28;853;-58
2021/07/13 01:41:53;;;;;;;52.75;43.88;;;;;;;18.35;88.80;101138.09;690885;28;1172;-59
2021/07/13 01:42:13;;;;;;;53.30;43.53;;;;;;;18.36;88.47;101136.28;691019;28;962;-58
2021/07/13 01:42:36;;;;;;;53.87;44.80;;;;;;;18.35;88.36;101129.25;690957;28;1128;-58
2021/07/13 01:42:58;;;;;;;53.17;44.10;;;;;;;18.32;88.47;101137.47;690398;28;971;-59
2021/07/13 01:43:20;;;;;;;52.75;42.60;;;;;;;18.30;88.39;101140.22;691037;28;841;-59
2021/07/13 01:43:42;;;;;;;52.40;42.90;;;;;;;18.31;88.42;101141.94;690941;28;1349;-58
2021/07/13 01:44:04;;;;;;;51.13;42.17;;;;;;;18.33;88.60;101141.84;690904;28;880;-58
2021/07/13 01:44:29;;;;;;;50.97;42.33;;;;;;;18.32;88.78;101143.66;690925;28;1272;-59
2021/07/13 01:44:52;;;;;;;51.65;42.55;;;;;;;18.31;88.97;101147.28;690958;28;1014;-59
2021/07/13 01:45:13;;;;;;;53.50;43.92;;;;;;;18.30;88.99;101148.22;690842;28;974;-59
2021/07/13 01:45:40;;;;;;;53.85;43.83;;;;;;;18.30;88.77;101142.88;691063;28;817;-59
2021/07/13 01:46:02;;;;;;;52.97;42.83;;;;;;;18.33;88.67;101141.84;690291;28;1281;-58
2021/07/13 01:46:23;;;;;;;52.58;41.92;;;;;;;18.34;88.75;101141.75;691050;28;1109;-58
2021/07/13 01:46:44;;;;;;;50.88;42.30;;;;;;;18.33;88.52;101148.00;691010;28;1011;-58
2021/07/13 01:47:06;;;;;;;53.05;43.30;;;;;;;18.33;88.58;101140.00;690850;28;907;-59
2021/07/13 01:47:27;;;;;;;53.80;43.30;;;;;;;18.34;88.49;101136.41;690446;28;1333;-59
2021/07/13 01:47:53;;;;;;;53.72;43.22;;;;;;;18.33;88.59;101137.34;691005;28;1057;-59
2021/07/13 01:48:14;;;;;;;53.35;43.70;;;;;;;18.35;88.46;101142.59;690938;28;975;-58
2021/07/13 01:48:37;;;;;;;54.42;45.25;;;;;;;18.35;88.54;101138.09;691089;28;876;-58
2021/07/13 01:48:58;;;;;;;53.55;43.60;;;;;;;18.36;88.71;101137.13;690859;28;895;-59
2021/07/13 01:49:22;;;;;;;51.08;42.53;;;;;;;18.37;88.40;101136.16;690948;28;1079;-59
2021/07/13 01:49:43;;;;;;;53.53;42.58;;;;;;;18.39;88.55;101141.41;690897;28;903;-59
2021/07/13 01:50:08;;;;;;;50.03;42.20;;;;;;;18.41;88.50;101142.13;690962;28;943;-59
2021/07/13 01:50:31;;;;;;;53.80;43.17;;;;;;;18.40;88.34;101140.44;690841;28;1830;-59
2021/07/13 01:50:56;;;;;;;51.90;41.83;;;;;;;18.38;88.22;101134.38;690955;28;884;-58
2021/07/13 01:51:20;;;;;;;51.58;42.03;;;;;;;18.37;88.36;101141.50;690603;28;966;-58
2021/07/13 01:51:41;;;;;;;53.25;42.50;;;;;;;18.37;88.33;101136.16;690622;28;919;-59
2021/07/13 01:52:03;;;;;;;51.95;42.33;;;;;;;18.36;88.43;101134.47;690614;28;860;-59
2021/07/13 01:52:28;;;;;;;51.22;42.40;;;;;;;18.31;88.60;101136.63;690941;28;955;-59
2021/07/13 01:52:52;;;;;;;51.85;42.20;;;;;;;18.30;88.47;101134.03;690466;28;950;-59
2021/07/13 01:53:13;;;;;;;52.40;41.63;;;;;;;18.31;88.59;101131.28;690974;28;967;-59
2021/07/13 01:53:35;;;;;;;51.45;41.00;;;;;;;18.32;88.72;101135.66;690659;28;915;-58